createdAt,value
2019-02-11T00:00:09.777Z,95.2
2019-02-11T00:01:19.072Z,95.2
2019-02-11T00:02:28.337Z,95.9
2019-02-11T00:03:37.642Z,97.2
2019-02-11T00:04:46.925Z,97.4
2019-02-11T00:05:56.185Z,96.9
2019-02-11T00:07:05.454Z,96.3
2019-02-11T00:08:14.748Z,96.1
2019-02-11T00:09:24.032Z,96
2019-02-11T00:10:33.299Z,95.9
2019-02-11T00:11:42.560Z,95.3
2019-02-11T00:12:51.822Z,96.2
2019-02-11T00:14:01.113Z,96.9
2019-02-11T00:15:10.415Z,95.6
2019-02-11T00:16:19.642Z,96.2
2019-02-11T00:17:28.913Z,95.4
2019-02-11T00:18:38.335Z,95.5
2019-02-11T00:19:47.536Z,94.7
2019-02-11T00:20:56.725Z,94.7
2019-02-11T00:22:05.983Z,93.7
2019-02-11T00:23:15.260Z,93.5
2019-02-11T00:24:24.536Z,92.9
2019-02-11T00:25:33.770Z,92
2019-02-11T00:26:43.047Z,91.1
2019-02-11T00:27:52.315Z,90.5
2019-02-11T00:29:01.563Z,92.2
2019-02-11T00:30:10.821Z,91.4
2019-02-11T00:31:20.274Z,90.9
2019-02-11T00:32:29.370Z,91.3
2019-02-11T00:33:38.674Z,88.3
2019-02-11T00:34:47.898Z,88.4
2019-02-11T00:35:57.280Z,90.2
2019-02-11T00:37:06.433Z,90.2
2019-02-11T00:38:15.665Z,90.3
2019-02-11T00:39:24.914Z,90.2
2019-02-11T00:40:34.181Z,88.4
2019-02-11T00:41:43.445Z,87.9
2019-02-11T00:42:52.695Z,89.8
2019-02-11T00:44:01.949Z,89.1
2019-02-11T00:45:11.210Z,90.2
2019-02-11T00:46:20.467Z,88
2019-02-11T00:47:29.718Z,88.8
2019-02-11T00:48:38.975Z,89.6
2019-02-11T00:49:48.215Z,90.1
2019-02-11T00:50:57.508Z,90.1
2019-02-11T00:52:06.755Z,90.1
2019-02-11T00:53:15.982Z,90.1
2019-02-11T00:54:25.225Z,88.9
2019-02-11T00:55:34.484Z,90.1
2019-02-11T00:56:43.728Z,90.1
2019-02-11T00:57:52.986Z,90.1
2019-02-11T00:59:02.215Z,90
2019-02-11T01:00:11.486Z,91.1
2019-02-11T01:01:20.749Z,90.7
2019-02-11T01:02:29.979Z,90.7
2019-02-11T01:03:39.267Z,90.5
2019-02-11T01:04:48.479Z,90.1
2019-02-11T01:05:57.751Z,90.8
2019-02-11T01:07:07.834Z,90.4
2019-02-11T01:08:16.334Z,90
2019-02-11T01:09:25.465Z,90.5
2019-02-11T01:10:34.751Z,90.9
2019-02-11T01:11:44.005Z,88.7
2019-02-11T01:12:53.206Z,87.6
2019-02-11T01:14:02.485Z,87.7
2019-02-11T01:15:11.697Z,85.8
2019-02-11T01:17:30.177Z,88.3
2019-02-11T01:18:39.443Z,90
2019-02-11T01:19:48.669Z,88.7
2019-02-11T01:20:57.894Z,91.2
2019-02-11T01:22:07.170Z,90.3
2019-02-11T01:23:16.442Z,91.9
2019-02-11T01:24:25.642Z,90.4
2019-02-11T01:25:34.870Z,89.6
2019-02-11T01:26:44.094Z,90.5
2019-02-11T01:27:53.320Z,90.6
2019-02-11T01:29:02.631Z,91.2
2019-02-11T01:30:11.823Z,91.9
2019-02-11T01:31:21.036Z,93
2019-02-11T01:32:30.268Z,92.3
2019-02-11T01:33:39.508Z,92.1
2019-02-11T01:34:48.741Z,92.8
2019-02-11T01:35:57.971Z,94
2019-02-11T01:37:07.186Z,93.9
2019-02-11T01:38:16.570Z,94.8
2019-02-11T01:39:25.645Z,95.2
2019-02-11T01:40:34.899Z,95
2019-02-11T01:41:44.103Z,96.3
2019-02-11T01:42:53.321Z,96.1
2019-02-11T01:44:02.570Z,96.5
2019-02-11T01:45:11.797Z,96.3
2019-02-11T01:46:21.048Z,97
2019-02-11T01:47:30.211Z,97.9
2019-02-11T01:48:39.434Z,97.9
2019-02-11T01:49:48.669Z,97.5
2019-02-11T01:50:57.849Z,97.6
2019-02-11T01:52:07.093Z,98.9
2019-02-11T01:53:16.332Z,97.9
2019-02-11T01:54:25.523Z,98.1
2019-02-11T01:55:34.704Z,97.9
2019-02-11T01:56:43.917Z,98.2
2019-02-11T01:57:53.123Z,98.2
2019-02-11T01:59:02.333Z,98.5
2019-02-11T02:00:11.531Z,98.9
2019-02-11T02:01:20.733Z,98.6
2019-02-11T02:02:30.127Z,98.7
2019-02-11T02:03:39.171Z,98.6
2019-02-11T02:04:48.341Z,98.5
2019-02-11T02:05:57.556Z,98.7
2019-02-11T02:07:06.767Z,99.1
2019-02-11T02:08:15.956Z,98.8
2019-02-11T02:09:25.172Z,99
2019-02-11T02:10:34.391Z,98.9
2019-02-11T02:11:43.636Z,98.8
2019-02-11T02:12:52.776Z,98.7
2019-02-11T02:14:01.981Z,98.7
2019-02-11T02:15:11.186Z,98.9
2019-02-11T02:16:20.430Z,98.8
2019-02-11T02:17:29.594Z,98.9
2019-02-11T02:18:38.858Z,98.7
2019-02-11T02:19:48.098Z,98.6
2019-02-11T02:20:57.204Z,99.4
2019-02-11T02:22:06.909Z,98.8
2019-02-11T02:23:15.585Z,99.8
2019-02-11T02:24:24.793Z,99.1
2019-02-11T02:25:33.993Z,99.1
2019-02-11T02:26:43.194Z,99.5
2019-02-11T02:27:52.433Z,99.4
2019-02-11T02:29:01.584Z,99.8
2019-02-11T02:30:10.784Z,99.4
2019-02-11T02:31:19.976Z,99.3
2019-02-11T02:32:29.181Z,99.4
2019-02-11T02:33:38.396Z,99.3
2019-02-11T02:34:47.612Z,99.6
2019-02-11T02:35:56.855Z,99.6
2019-02-11T02:37:05.954Z,99.8
2019-02-11T02:38:15.162Z,99.7
2019-02-11T02:39:24.363Z,99.9
2019-02-11T02:40:33.571Z,99.8
2019-02-11T02:41:42.738Z,99.7
2019-02-11T02:42:51.945Z,99.7
2019-02-11T02:44:01.123Z,99.9
2019-02-11T02:45:10.314Z,99.9
2019-02-11T02:46:19.510Z,99.9
2019-02-11T02:47:28.692Z,99.9
2019-02-11T02:48:37.947Z,99.9
2019-02-11T02:49:47.075Z,99.9
2019-02-11T02:50:56.270Z,99.9
2019-02-11T02:52:05.483Z,99.9
2019-02-11T02:53:14.675Z,99.9
2019-02-11T02:54:23.811Z,99.9
2019-02-11T02:55:32.999Z,99.9
2019-02-11T02:56:42.175Z,99.9
2019-02-11T02:57:51.377Z,99.9
2019-02-11T02:59:00.573Z,99.9
2019-02-11T03:00:09.775Z,99.9
2019-02-11T03:01:18.930Z,99.9
2019-02-11T03:02:28.114Z,99.9
2019-02-11T03:03:37.287Z,99.9
2019-02-11T03:04:46.533Z,99.9
2019-02-11T03:05:55.670Z,99.9
2019-02-11T03:07:04.820Z,99.9
2019-02-11T03:08:14.004Z,99.9
2019-02-11T03:09:23.194Z,99.9
2019-02-11T03:10:32.402Z,99.9
2019-02-11T03:11:41.722Z,99.9
2019-02-11T03:12:50.754Z,99.9
2019-02-11T03:14:06.421Z,99.9
2019-02-11T03:15:09.113Z,99.9
2019-02-11T03:16:18.313Z,99.9
2019-02-11T03:17:27.478Z,99.9
2019-02-11T03:18:36.817Z,99.9
2019-02-11T03:19:45.827Z,99.9
2019-02-11T03:20:55.014Z,99.9
2019-02-11T03:22:04.192Z,99.9
2019-02-11T03:23:13.443Z,99.9
2019-02-11T03:24:22.576Z,99.9
2019-02-11T03:25:31.758Z,99.9
2019-02-11T03:26:40.909Z,99.9
2019-02-11T03:27:50.075Z,99.9
2019-02-11T03:28:59.268Z,99.9
2019-02-11T03:30:08.457Z,99.9
2019-02-11T03:31:17.690Z,99.9
2019-02-11T03:32:26.806Z,99.9
2019-02-11T03:33:35.971Z,99.9
2019-02-11T03:34:45.161Z,99.9
2019-02-11T03:35:54.330Z,99.9
2019-02-11T03:37:03.521Z,99.9
2019-02-11T03:38:12.710Z,99.9
2019-02-11T03:39:21.886Z,99.9
2019-02-11T03:40:31.085Z,99.9
2019-02-11T03:41:40.268Z,99.9
2019-02-11T03:42:49.484Z,99.9
2019-02-11T03:43:58.590Z,99.9
2019-02-11T03:45:07.778Z,99.9
2019-02-11T03:46:17.028Z,99.9
2019-02-11T03:47:26.253Z,99.9
2019-02-11T03:48:35.325Z,99.9
2019-02-11T03:49:44.513Z,99.9
2019-02-11T03:50:53.701Z,99.9
2019-02-11T03:52:02.893Z,99.9
2019-02-11T03:53:12.068Z,99.9
2019-02-11T03:54:21.298Z,99.9
2019-02-11T03:55:30.452Z,99.9
2019-02-11T03:56:39.632Z,99.9
2019-02-11T03:57:48.817Z,99.9
2019-02-11T03:58:57.995Z,99.9
2019-02-11T04:00:07.221Z,99.9
2019-02-11T04:01:16.909Z,99.9
2019-02-11T04:02:25.571Z,99.9
2019-02-11T04:03:34.798Z,99.9
2019-02-11T04:04:44.254Z,99.9
2019-02-11T04:05:53.171Z,99.9
2019-02-11T04:07:02.412Z,99.9
2019-02-11T04:08:11.521Z,99.9
2019-02-11T04:09:20.744Z,99.9
2019-02-11T04:10:29.907Z,99.9
2019-02-11T04:11:39.113Z,99.9
2019-02-11T04:12:48.367Z,99.9
2019-02-11T04:13:57.536Z,99.9
2019-02-11T04:15:06.698Z,99.9
2019-02-11T04:16:15.921Z,99.9
2019-02-11T04:17:25.091Z,99.9
2019-02-11T04:18:34.332Z,99.9
2019-02-11T04:19:43.503Z,99.9
2019-02-11T04:20:52.686Z,99.9
2019-02-11T04:22:01.882Z,99.9
2019-02-11T04:23:11.138Z,99.9
2019-02-11T04:24:20.307Z,99.9
2019-02-11T04:25:29.479Z,99.9
2019-02-11T04:26:38.690Z,99.9
2019-02-11T04:27:47.899Z,99.9
2019-02-11T04:28:57.117Z,99.9
2019-02-11T04:30:06.333Z,99.9
2019-02-11T04:31:15.516Z,99.9
2019-02-11T04:32:24.691Z,99.9
2019-02-11T04:33:33.908Z,99.9
2019-02-11T04:34:43.117Z,99.9
2019-02-11T04:35:52.321Z,99.9
2019-02-11T04:37:01.524Z,99.9
2019-02-11T04:38:10.743Z,99.9
2019-02-11T04:39:19.945Z,99.9
2019-02-11T04:40:29.150Z,99.9
2019-02-11T04:41:38.360Z,99.9
2019-02-11T04:42:47.555Z,99.9
2019-02-11T04:43:56.859Z,99.9
2019-02-11T04:45:06.027Z,99.9
2019-02-11T04:46:15.194Z,99.9
2019-02-11T04:47:24.418Z,99.9
2019-02-11T04:48:33.632Z,99.9
2019-02-11T04:49:42.816Z,99.6
2019-02-11T04:50:52.035Z,99.7
2019-02-11T04:52:01.378Z,99.6
2019-02-11T04:53:10.535Z,99.5
2019-02-11T04:54:19.752Z,99.4
2019-02-11T04:55:28.916Z,99.2
2019-02-11T04:56:38.110Z,99.3
2019-02-11T04:57:47.357Z,98.6
2019-02-11T04:58:56.620Z,98.8
2019-02-11T05:00:05.753Z,98.7
2019-02-11T05:01:14.992Z,98.7
2019-02-11T05:02:24.158Z,98.6
2019-02-11T05:03:33.382Z,98.7
2019-02-11T05:04:42.606Z,98.3
2019-02-11T05:05:51.811Z,98.3
2019-02-11T05:07:01.062Z,98.3
2019-02-11T05:08:10.248Z,98.3
2019-02-11T05:09:19.466Z,98.4
2019-02-11T05:10:28.666Z,98.6
2019-02-11T05:11:37.913Z,98.4
2019-02-11T05:12:47.109Z,98.4
2019-02-11T05:13:56.325Z,98.4
2019-02-11T05:15:05.539Z,98.4
2019-02-11T05:16:14.766Z,98.3
2019-02-11T05:17:23.964Z,98.4
2019-02-11T05:18:33.188Z,98.4
2019-02-11T05:19:42.407Z,97.9
2019-02-11T05:20:51.631Z,97.9
2019-02-11T05:22:00.887Z,98
2019-02-11T05:23:10.156Z,98.1
2019-02-11T05:24:19.322Z,98
2019-02-11T05:25:28.529Z,98.4
2019-02-11T05:26:37.724Z,97.9
2019-02-11T05:27:47.068Z,97.9
2019-02-11T05:28:56.155Z,97.8
2019-02-11T05:30:05.395Z,97.9
2019-02-11T05:31:14.601Z,98
2019-02-11T05:32:23.853Z,97.8
2019-02-11T05:33:33.030Z,98.1
2019-02-11T05:34:42.247Z,98
2019-02-11T05:35:51.467Z,97.9
2019-02-11T05:37:00.702Z,98
2019-02-11T05:38:09.929Z,97.8
2019-02-11T05:39:19.250Z,97.6
2019-02-11T05:40:28.376Z,98.2
2019-02-11T05:41:37.683Z,97.5
2019-02-11T05:42:46.933Z,97.9
2019-02-11T05:43:56.006Z,97.8
2019-02-11T05:45:05.224Z,97.7
2019-02-11T05:46:14.671Z,98
2019-02-11T05:47:23.784Z,97.6
2019-02-11T05:48:32.897Z,98
2019-02-11T05:49:42.135Z,98
2019-02-11T05:50:51.351Z,98.4
2019-02-11T05:52:00.600Z,97.9
2019-02-11T05:53:09.787Z,97.9
2019-02-11T05:54:19.057Z,98.2
2019-02-11T05:55:28.245Z,98.4
2019-02-11T05:56:37.470Z,98.1
2019-02-11T05:57:46.855Z,98.2
2019-02-11T05:58:55.903Z,98
2019-02-11T06:00:05.155Z,98.1
2019-02-11T06:01:14.420Z,98.1
2019-02-11T06:02:23.578Z,98
2019-02-11T06:03:32.799Z,97.9
2019-02-11T06:04:42.042Z,98.1
2019-02-11T06:05:51.254Z,97.9
2019-02-11T06:07:00.506Z,97.7
2019-02-11T06:08:09.686Z,97.4
2019-02-11T06:09:19.118Z,97.3
2019-02-11T06:10:28.240Z,97.3
2019-02-11T06:11:37.357Z,97.6
2019-02-11T06:12:46.578Z,97.3
2019-02-11T06:13:55.804Z,97.6
2019-02-11T06:15:05.099Z,97.8
2019-02-11T06:16:14.309Z,97.6
2019-02-11T06:17:23.549Z,97.2
2019-02-11T06:18:32.886Z,97.7
2019-02-11T06:19:41.940Z,97.7
2019-02-11T06:20:51.194Z,97.6
2019-02-11T06:22:00.427Z,98
2019-02-11T06:23:09.611Z,97.6
2019-02-11T06:24:18.844Z,97.2
2019-02-11T06:25:28.104Z,97.4
2019-02-11T06:26:37.302Z,97.5
2019-02-11T06:27:46.514Z,97.5
2019-02-11T06:28:55.739Z,97.5
2019-02-11T06:30:04.982Z,97.2
2019-02-11T06:31:14.514Z,97.1
2019-02-11T06:32:23.454Z,97.4
2019-02-11T06:33:32.684Z,97.6
2019-02-11T06:34:41.871Z,97.7
2019-02-11T06:35:51.333Z,97.4
2019-02-11T06:37:00.336Z,97.8
2019-02-11T06:38:09.689Z,97.3
2019-02-11T06:39:18.785Z,97.6
2019-02-11T06:40:28.028Z,97.5
2019-02-11T06:41:37.243Z,97.5
2019-02-11T06:42:46.506Z,97.3
2019-02-11T06:43:55.691Z,96.8
2019-02-11T06:45:13.560Z,97.4
2019-02-11T06:46:14.174Z,97.3
2019-02-11T06:47:23.406Z,97.4
2019-02-11T06:48:32.641Z,97.1
2019-02-11T06:49:41.932Z,97.3
2019-02-11T06:50:51.092Z,96.9
2019-02-11T06:52:00.381Z,97
2019-02-11T06:53:09.560Z,97.1
2019-02-11T06:54:18.823Z,96.7
2019-02-11T06:55:28.019Z,97.1
2019-02-11T06:56:37.252Z,97.3
2019-02-11T06:57:46.476Z,96.7
2019-02-11T06:58:55.702Z,96.9
2019-02-11T07:00:04.958Z,97.2
2019-02-11T07:01:14.184Z,97.7
2019-02-11T07:02:23.852Z,97.9
2019-02-11T07:03:32.619Z,98.6
2019-02-11T07:04:41.930Z,98.8
2019-02-11T07:05:51.127Z,99.3
2019-02-11T07:07:00.334Z,99.9
2019-02-11T07:08:09.558Z,99.3
2019-02-11T07:09:18.830Z,99.6
2019-02-11T07:10:28.065Z,99.7
2019-02-11T07:11:37.347Z,99.1
2019-02-11T07:12:46.531Z,98.6
2019-02-11T07:13:55.756Z,98.6
2019-02-11T07:15:04.970Z,98.6
2019-02-11T07:16:14.260Z,98.6
2019-02-11T07:17:23.438Z,98.1
2019-02-11T07:18:32.695Z,97.8
2019-02-11T07:19:41.906Z,97.5
2019-02-11T07:20:51.162Z,98
2019-02-11T07:22:00.384Z,96.9
2019-02-11T07:23:09.612Z,96.1
2019-02-11T07:24:18.850Z,95.9
2019-02-11T07:25:28.071Z,96.4
2019-02-11T07:26:37.308Z,96.5
2019-02-11T07:27:46.612Z,95.9
2019-02-11T07:28:55.787Z,95.7
2019-02-11T07:30:05.038Z,95.5
2019-02-11T07:31:14.283Z,94.7
2019-02-11T07:32:23.503Z,94.8
2019-02-11T07:33:32.740Z,94.7
2019-02-11T07:34:41.977Z,95.3
2019-02-11T07:35:51.221Z,95.3
2019-02-11T07:37:00.479Z,95.7
2019-02-11T07:38:09.695Z,95.8
2019-02-11T07:39:19.052Z,95.7
2019-02-11T07:40:28.201Z,97.3
2019-02-11T07:41:37.410Z,97.6
2019-02-11T07:42:46.669Z,98.6
2019-02-11T07:43:55.898Z,99.5
2019-02-11T07:45:05.147Z,99.8
2019-02-11T07:46:14.430Z,99.9
2019-02-11T07:47:23.618Z,99.6
2019-02-11T07:48:32.877Z,99.6
2019-02-11T07:49:42.099Z,99.7
2019-02-11T07:50:51.343Z,99.8
2019-02-11T07:52:00.579Z,99.7
2019-02-11T07:53:09.829Z,99.4
2019-02-11T07:54:19.049Z,99.6
2019-02-11T07:55:28.304Z,99.4
2019-02-11T07:56:37.557Z,99.4
2019-02-11T07:57:46.808Z,99.1
2019-02-11T07:58:56.018Z,99
2019-02-11T08:00:05.283Z,99.1
2019-02-11T08:01:14.499Z,99
2019-02-11T08:02:23.736Z,99.2
2019-02-11T08:03:32.977Z,99.1
2019-02-11T08:04:42.215Z,98.7
2019-02-11T08:05:51.524Z,99.1
2019-02-11T08:07:00.712Z,99
2019-02-11T08:08:09.979Z,98.7
2019-02-11T08:09:19.214Z,98.7
2019-02-11T08:10:28.454Z,98.7
2019-02-11T08:11:37.746Z,98.3
2019-02-11T08:12:47.026Z,99
2019-02-11T08:13:56.176Z,98.3
2019-02-11T08:15:05.429Z,97.9
2019-02-11T08:16:14.718Z,97.8
2019-02-11T08:17:23.949Z,97.2
2019-02-11T08:18:33.180Z,97.5
2019-02-11T08:19:42.476Z,97.5
2019-02-11T08:20:51.720Z,96.7
2019-02-11T08:22:00.934Z,96.5
2019-02-11T08:23:13.873Z,96
2019-02-11T08:24:19.459Z,95.8
2019-02-11T08:25:28.738Z,94.9
2019-02-11T08:26:37.958Z,95.1
2019-02-11T08:27:47.311Z,95.2
2019-02-11T08:28:56.463Z,95.1
2019-02-11T08:30:05.729Z,95.3
2019-02-11T08:31:15.086Z,95.6
2019-02-11T08:32:24.249Z,94.7
2019-02-11T08:33:33.554Z,95
2019-02-11T08:34:42.756Z,95.2
2019-02-11T08:35:52.198Z,95.1
2019-02-11T08:37:01.365Z,95.1
2019-02-11T08:38:10.555Z,96.7
2019-02-11T08:39:19.893Z,95
2019-02-11T08:40:29.089Z,94.7
2019-02-11T08:41:38.312Z,94.5
2019-02-11T08:42:47.566Z,94.7
2019-02-11T08:43:58.366Z,94.8
2019-02-11T08:45:06.182Z,96.3
2019-02-11T08:46:15.358Z,94.7
2019-02-11T08:47:24.666Z,94.8
2019-02-11T08:48:33.935Z,94.7
2019-02-11T08:49:43.276Z,94.7
2019-02-11T08:50:52.400Z,93.8
2019-02-11T08:52:01.749Z,93.8
2019-02-11T08:53:10.934Z,93.7
2019-02-11T08:54:20.217Z,93.9
2019-02-11T08:55:29.454Z,93.1
2019-02-11T08:56:38.739Z,94.4
2019-02-11T08:57:47.991Z,93.1
2019-02-11T08:58:57.229Z,92.5
2019-02-11T09:00:06.514Z,91.8
2019-02-11T09:01:15.762Z,92.5
2019-02-11T09:02:25.073Z,92.2
2019-02-11T09:03:34.304Z,91.6
2019-02-11T09:04:43.571Z,91.3
2019-02-11T09:05:52.868Z,91.2
2019-02-11T09:07:02.130Z,87.4
2019-02-11T09:08:11.434Z,84.6
2019-02-11T09:09:20.641Z,83.7
2019-02-11T09:10:29.940Z,82.9
2019-02-11T09:11:39.178Z,79.3
2019-02-11T09:12:48.437Z,77.8
2019-02-11T09:13:57.718Z,77
2019-02-11T09:15:06.996Z,73.8
2019-02-11T09:16:16.347Z,71.7
2019-02-11T09:17:25.518Z,70.6
2019-02-11T09:18:34.777Z,70.7
2019-02-11T09:19:44.034Z,70.7
2019-02-11T09:20:53.305Z,67
2019-02-11T09:22:07.915Z,63.9
2019-02-11T09:23:11.906Z,62.9
2019-02-11T09:24:21.097Z,68.4
2019-02-11T09:25:30.367Z,68
2019-02-11T09:26:39.640Z,66.1
2019-02-11T09:27:48.913Z,64.8
2019-02-11T09:28:58.280Z,61.5
2019-02-11T09:30:07.439Z,64.3
2019-02-11T09:31:17.239Z,60.2
2019-02-11T09:32:26.023Z,60.9
2019-02-11T09:33:35.246Z,64
2019-02-11T09:34:44.506Z,64.7
2019-02-11T09:35:53.782Z,60.7
2019-02-11T09:37:03.063Z,61.7
2019-02-11T09:38:12.341Z,58.5
2019-02-11T09:39:21.598Z,58.9
2019-02-11T09:40:30.871Z,58.7
2019-02-11T09:41:40.169Z,62.7
2019-02-11T09:42:49.433Z,60
2019-02-11T09:43:58.694Z,63.4
2019-02-11T09:45:07.969Z,61.2
2019-02-11T09:46:17.230Z,61.4
2019-02-11T09:47:26.512Z,57.3
2019-02-11T09:48:35.769Z,59.5
2019-02-11T09:49:45.039Z,63.5
2019-02-11T09:50:54.323Z,61.9
2019-02-11T09:52:03.604Z,58.3
2019-02-11T09:53:12.874Z,61.3
2019-02-11T09:55:31.668Z,62.9
2019-02-11T09:56:40.685Z,59.1
2019-02-11T09:57:49.975Z,60.2
2019-02-11T09:58:59.245Z,60.2
2019-02-11T10:00:08.518Z,62.2
2019-02-11T10:01:17.803Z,61.1
2019-02-11T10:02:27.065Z,60.7
2019-02-11T10:03:36.344Z,62.3
2019-02-11T10:04:45.639Z,65.6
2019-02-11T10:05:54.899Z,60.3
2019-02-11T10:07:04.182Z,62.8
2019-02-11T10:08:13.446Z,60.3
2019-02-11T10:09:22.750Z,62.6
2019-02-11T10:10:32.041Z,64
2019-02-11T10:11:41.387Z,59.9
2019-02-11T10:12:50.574Z,60.3
2019-02-11T10:13:59.857Z,61.5
2019-02-11T10:15:09.249Z,57.3
2019-02-11T10:16:18.449Z,54.4
2019-02-11T10:17:30.120Z,50.2
2019-02-11T10:18:36.997Z,49.6
2019-02-11T10:19:46.581Z,51
2019-02-11T10:20:55.551Z,50.5
2019-02-11T10:22:04.843Z,57.1
2019-02-11T10:23:14.157Z,50.3
2019-02-11T10:24:23.390Z,52.6
2019-02-11T10:25:32.736Z,49.1
2019-02-11T10:26:41.985Z,52.9
2019-02-11T10:27:51.293Z,55.1
2019-02-11T10:29:00.523Z,57.5
2019-02-11T10:30:09.856Z,56
2019-02-11T10:31:19.200Z,54.8
2019-02-11T10:32:28.466Z,56.5
2019-02-11T10:33:37.680Z,54.7
2019-02-11T10:34:47.081Z,58
2019-02-11T10:35:56.243Z,57.4
2019-02-11T10:37:05.507Z,57.2
2019-02-11T10:38:14.807Z,54.6
2019-02-11T10:39:24.106Z,54.9
2019-02-11T10:40:33.424Z,53.4
2019-02-11T10:41:42.662Z,51.7
2019-02-11T10:42:52.000Z,50
2019-02-11T10:44:01.336Z,48.5
2019-02-11T10:45:10.544Z,48.7
2019-02-11T10:46:21.373Z,46.5
2019-02-11T10:47:29.109Z,45.4
2019-02-11T10:48:38.455Z,46
2019-02-11T10:49:47.698Z,43.8
2019-02-11T10:50:57.002Z,47.2
2019-02-11T10:52:06.368Z,43.6
2019-02-11T10:53:15.600Z,45.7
2019-02-11T10:54:24.916Z,43.7
2019-02-11T10:55:34.211Z,43.7
2019-02-11T10:56:43.492Z,43.8
2019-02-11T10:57:52.808Z,45.1
2019-02-11T10:59:02.192Z,44
2019-02-11T11:00:11.402Z,46.2
2019-02-11T11:01:20.714Z,45.2
2019-02-11T11:02:30.009Z,44.8
2019-02-11T11:03:39.315Z,44.6
2019-02-11T11:04:48.615Z,43.9
2019-02-11T11:05:57.934Z,44.5
2019-02-11T11:07:07.269Z,43
2019-02-11T11:08:16.594Z,46.4
2019-02-11T11:09:25.848Z,44.1
2019-02-11T11:10:35.145Z,45.9
2019-02-11T11:11:44.456Z,45.1
2019-02-11T11:12:53.764Z,43.9
2019-02-11T11:14:03.089Z,43.9
2019-02-11T11:15:12.375Z,42.3
2019-02-11T11:16:29.914Z,42.9
2019-02-11T11:17:31.048Z,43.9
2019-02-11T11:18:40.325Z,41.5
2019-02-11T11:19:50.990Z,43.6
2019-02-11T11:21:00.337Z,42.5
2019-02-11T11:22:09.672Z,43.7
2019-02-11T11:23:18.940Z,43.9
2019-02-11T11:24:28.223Z,43.8
2019-02-11T11:25:37.521Z,43.6
2019-02-11T11:26:46.835Z,41.9
2019-02-11T11:27:56.206Z,41.9
2019-02-11T11:29:06.202Z,41.3
2019-02-11T11:30:14.757Z,41.6
2019-02-11T11:31:24.302Z,39.9
2019-02-11T11:32:33.381Z,39
2019-02-11T11:33:42.728Z,42.3
2019-02-11T11:34:52.028Z,41.1
2019-02-11T11:36:01.372Z,40.4
2019-02-11T11:37:10.687Z,41.9
2019-02-11T11:38:19.983Z,38.9
2019-02-11T11:39:29.262Z,41.6
2019-02-11T11:40:38.560Z,40.8
2019-02-11T11:41:47.857Z,39.8
2019-02-11T11:42:57.223Z,40.8
2019-02-11T11:44:06.500Z,38.6
2019-02-11T11:45:15.799Z,39.3
2019-02-11T11:46:25.135Z,40.3
2019-02-11T11:47:34.708Z,41.4
2019-02-11T11:48:43.724Z,41.6
2019-02-11T11:49:53.050Z,39.4
2019-02-11T11:51:02.435Z,43.1
2019-02-11T11:52:11.664Z,40.9
2019-02-11T11:53:20.973Z,39
2019-02-11T11:54:30.290Z,40.8
2019-02-11T11:55:39.644Z,40.2
2019-02-11T11:56:48.874Z,41.9
2019-02-11T11:57:58.208Z,42.6
2019-02-11T11:59:07.481Z,41.7
2019-02-11T12:00:16.810Z,43.9
2019-02-11T12:01:26.091Z,42
2019-02-11T12:02:35.436Z,42.1
2019-02-11T12:03:44.715Z,44
2019-02-11T12:04:54.003Z,44
2019-02-11T12:06:03.326Z,45.5
2019-02-11T12:07:12.635Z,44
2019-02-11T12:08:21.919Z,43
2019-02-11T12:09:31.311Z,43.8
2019-02-11T12:10:40.551Z,44.4
2019-02-11T12:11:49.901Z,43.9
2019-02-11T12:12:59.168Z,43.8
2019-02-11T12:14:08.451Z,43.9
2019-02-11T12:15:17.802Z,47.6
2019-02-11T12:16:27.073Z,46.5
2019-02-11T12:17:36.401Z,44.4
2019-02-11T12:18:45.708Z,44
2019-02-11T12:19:55.094Z,44
2019-02-11T12:21:04.279Z,46.4
2019-02-11T12:22:13.598Z,49
2019-02-11T12:23:22.872Z,45.1
2019-02-11T12:24:32.159Z,47.6
2019-02-11T12:25:41.537Z,44.6
2019-02-11T12:26:50.810Z,47.3
2019-02-11T12:28:00.067Z,44
2019-02-11T12:29:09.362Z,44.6
2019-02-11T12:30:18.791Z,45.1
2019-02-11T12:31:27.973Z,46
2019-02-11T12:32:37.266Z,46.7
2019-02-11T12:33:46.624Z,47.6
2019-02-11T12:34:55.917Z,48.5
2019-02-11T12:36:05.168Z,46.6
2019-02-11T12:37:14.447Z,47
2019-02-11T12:38:23.828Z,47
2019-02-11T12:39:33.057Z,45.3
2019-02-11T12:40:42.399Z,44
2019-02-11T12:41:51.661Z,43.7
2019-02-11T12:43:00.963Z,40.6
2019-02-11T12:44:10.268Z,39.8
2019-02-11T12:45:19.568Z,40.6
2019-02-11T12:46:28.886Z,40.8
2019-02-11T12:47:38.171Z,39.7
2019-02-11T12:48:47.589Z,39.9
2019-02-11T12:49:56.833Z,38.7
2019-02-11T12:51:06.118Z,37.4
2019-02-11T12:52:15.424Z,37.8
2019-02-11T12:53:24.710Z,34.9
2019-02-11T12:54:34.028Z,36.1
2019-02-11T12:55:43.339Z,35.4
2019-02-11T12:56:52.748Z,36.1
2019-02-11T12:58:01.971Z,35
2019-02-11T12:59:11.369Z,36.4
2019-02-11T13:00:20.675Z,34.1
2019-02-11T13:01:29.913Z,34.8
2019-02-11T13:02:39.275Z,36.1
2019-02-11T13:03:50.167Z,35.4
2019-02-11T13:04:59.459Z,35.8
2019-02-11T13:06:08.772Z,38.4
2019-02-11T13:07:18.262Z,35.9
2019-02-11T13:08:27.433Z,35.2
2019-02-11T13:09:36.728Z,35.5
2019-02-11T13:10:46.045Z,38
2019-02-11T13:11:55.335Z,37.2
2019-02-11T13:13:07.429Z,38.5
2019-02-11T13:14:13.956Z,37.9
2019-02-11T13:16:00.513Z,39.2
2019-02-11T13:16:32.949Z,38.5
2019-02-11T13:17:41.918Z,38.1
2019-02-11T13:18:51.269Z,37.7
2019-02-11T13:20:10.651Z,39.5
2019-02-11T13:21:09.863Z,38.5
2019-02-11T13:22:19.193Z,38.5
2019-02-11T13:23:28.473Z,38.5
2019-02-11T13:24:37.789Z,38.3
2019-02-11T13:25:47.091Z,38.6
2019-02-11T13:26:56.417Z,41
2019-02-11T13:28:05.740Z,40
2019-02-11T13:29:15.059Z,40
2019-02-11T13:30:24.371Z,39.1
2019-02-11T13:31:33.669Z,41.7
2019-02-11T13:32:42.994Z,41
2019-02-11T13:33:52.329Z,42.4
2019-02-11T13:35:01.649Z,41.9
2019-02-11T13:36:10.905Z,41.3
2019-02-11T13:37:20.251Z,41.9
2019-02-11T13:38:29.526Z,44.7
2019-02-11T13:39:38.826Z,47.4
2019-02-11T13:40:48.159Z,45.4
2019-02-11T13:41:57.483Z,45.7
2019-02-11T13:43:06.854Z,49.5
2019-02-11T13:44:16.096Z,48.3
2019-02-11T13:45:25.400Z,45.5
2019-02-11T13:46:34.736Z,46.9
2019-02-11T13:47:57.403Z,43.1
2019-02-11T13:48:53.411Z,43.8
2019-02-11T13:50:02.725Z,40.5
2019-02-11T13:51:12.072Z,40.5
2019-02-11T13:52:21.396Z,40.2
2019-02-11T13:53:30.666Z,39.7
2019-02-11T13:54:39.968Z,37.2
2019-02-11T13:55:49.323Z,38.5
2019-02-11T13:56:58.635Z,39.2
2019-02-11T13:58:07.973Z,38.3
2019-02-11T13:59:17.433Z,38.2
2019-02-11T14:00:26.724Z,37.9
2019-02-11T14:01:36.049Z,39.7
2019-02-11T14:02:45.266Z,36.3
2019-02-11T14:03:54.612Z,38.1
2019-02-11T14:05:03.957Z,37.4
2019-02-11T14:06:13.269Z,37.2
2019-02-11T14:07:22.593Z,38.7
2019-02-11T14:08:31.911Z,37.9
2019-02-11T14:09:41.275Z,39.9
2019-02-11T14:10:50.588Z,39.3
2019-02-11T14:11:59.929Z,38.9
2019-02-11T14:13:09.320Z,39.2
2019-02-11T14:14:18.697Z,36.1
2019-02-11T14:15:27.825Z,36.3
2019-02-11T14:16:37.248Z,33.9
2019-02-11T14:17:46.540Z,34.2
2019-02-11T14:18:55.759Z,30
2019-02-11T14:20:05.117Z,29.9
2019-02-11T14:21:14.476Z,28.9
2019-02-11T14:22:23.717Z,30.8
2019-02-11T14:23:33.060Z,27.4
2019-02-11T14:24:42.358Z,26.9
2019-02-11T14:25:51.691Z,25.7
2019-02-11T14:27:01.008Z,24.4
2019-02-11T14:28:10.310Z,25.5
2019-02-11T14:29:19.598Z,25.7
2019-02-11T14:30:28.983Z,24.2
2019-02-11T14:31:38.283Z,23.4
2019-02-11T14:32:47.692Z,22.7
2019-02-11T14:33:56.853Z,23.1
2019-02-11T14:35:06.179Z,22.7
2019-02-11T14:36:15.618Z,22.7
2019-02-11T14:37:24.808Z,23.1
2019-02-11T14:38:34.128Z,22.7
2019-02-11T14:39:43.673Z,22.2
2019-02-11T14:40:52.887Z,22.6
2019-02-11T14:42:02.052Z,22.5
2019-02-11T14:43:11.351Z,22.6
2019-02-11T14:44:20.740Z,22.7
2019-02-11T14:45:30.012Z,23.6
2019-02-11T14:46:39.303Z,22.7
2019-02-11T14:47:48.622Z,22.7
2019-02-11T14:48:57.958Z,22.6
2019-02-11T14:50:07.270Z,22.2
2019-02-11T14:51:16.506Z,23.1
2019-02-11T14:52:25.843Z,21.2
2019-02-11T14:53:35.133Z,21.2
2019-02-11T14:54:44.429Z,22.5
2019-02-11T14:55:53.754Z,22.5
2019-02-11T14:57:03.052Z,22.5
2019-02-11T14:58:12.418Z,21.7
2019-02-11T14:59:21.665Z,22.5
2019-02-11T15:00:30.963Z,22.4
2019-02-11T15:01:40.323Z,23.9
2019-02-11T15:02:49.595Z,23.3
2019-02-11T15:03:58.862Z,22.5
2019-02-11T15:05:08.156Z,23
2019-02-11T15:06:17.553Z,22.8
2019-02-11T15:07:26.761Z,22.5
2019-02-11T15:08:36.070Z,22.6
2019-02-11T15:09:45.381Z,22.5
2019-02-11T15:10:54.810Z,22.5
2019-02-11T15:12:03.976Z,22.4
2019-02-11T15:13:13.314Z,23.3
2019-02-11T15:14:22.590Z,22.3
2019-02-11T15:15:31.869Z,22.9
2019-02-11T15:16:41.214Z,22.6
2019-02-11T15:17:50.536Z,24.4
2019-02-11T15:18:59.806Z,24.1
2019-02-11T15:20:09.069Z,23.8
2019-02-11T15:21:18.341Z,23.8
2019-02-11T15:22:28.217Z,25.8
2019-02-11T15:23:36.961Z,24.4
2019-02-11T15:24:46.289Z,23.7
2019-02-11T15:25:55.509Z,24.7
2019-02-11T15:27:04.803Z,24.1
2019-02-11T15:28:14.262Z,25.5